Time;durP1;ratioP1;P1;durP2;ratioP2;P2;SDS_P1;SDS_P2;PMS_P1;PMS_P2;Temp;Humidity;BMP_temperature;BMP_pressure;BME280_temperature;BME280_humidity;BME280_pressure;Samples;Min_cycle;Max_cycle;Signal;HPM_P1;HPM_P2
2023/06/01 00:04:00;;;;;;;1.67;0.85;;;;;;;15.14;43.00;98065.44;10611195;27;20138;-70
2023/06/01 00:09:21;;;;;;;2.03;0.98;;;;;;;15.06;43.39;98064.28;10597209;27;20071;-70
2023/06/01 00:14:42;;;;;;;4.22;1.10;;;;;;;15.03;43.49;98060.63;10568416;27;20039;-70
2023/06/01 00:20:08;;;;;;;3.17;1.25;;;;;;;14.96;43.83;98061.66;10582137;27;20039;-70
2023/06/01 00:25:29;;;;;;;2.85;1.02;;;;;;;14.89;43.86;98062.66;10598080;27;20463;-70
2023/06/01 00:30:50;;;;;;;5.47;1.05;;;;;;;14.76;44.17;98066.13;10595523;27;20455;-70
2023/06/01 00:36:10;;;;;;;3.03;1.05;;;;;;;14.68;44.83;98065.69;10567625;27;20156;-70
2023/06/01 00:41:31;;;;;;;3.88;1.10;;;;;;;14.60;44.87;98052.63;10595651;27;20118;-71
2023/06/01 00:46:52;;;;;;;5.85;1.48;;;;;;;14.57;45.19;98045.44;10581398;27;20043;-70
2023/06/01 00:52:12;;;;;;;4.07;1.50;;;;;;;14.53;45.53;98047.28;10581078;27;20180;-70
2023/06/01 00:57:34;;;;;;;4.65;1.20;;;;;;;14.57;45.67;98047.50;10595137;27;20073;-70
2023/06/01 01:02:56;;;;;;;3.83;1.30;;;;;;;14.56;45.75;98051.66;10581070;27;20079;-70
2023/06/01 01:08:50;;;;;;;4.37;1.40;;;;;;;14.42;46.81;98045.94;10580808;27;20043;-70
2023/06/01 01:14:14;;;;;;;5.55;1.35;;;;;;;14.37;46.88;98047.06;10588615;27;20078;-70
2023/06/01 01:19:58;;;;;;;4.07;1.20;;;;;;;14.28;46.75;98039.50;10580946;28;20096;-70
2023/06/01 01:25:28;;;;;;;3.25;1.33;;;;;;;14.17;47.22;98043.81;10597377;28;20192;-70
2023/06/01 01:30:50;;;;;;;4.00;1.10;;;;;;;14.13;47.38;98043.59;10594224;28;20063;-70
2023/06/01 01:36:10;;;;;;;4.32;1.33;;;;;;;14.10;47.72;98044.09;10579885;28;20118;-70
2023/06/01 01:41:31;;;;;;;4.53;1.02;;;;;;;14.01;48.03;98042.88;10582527;27;20067;-70
2023/06/01 01:47:12;;;;;;;5.97;1.90;;;;;;;13.90;48.39;98033.13;10616995;27;20150;-70
2023/06/01 01:52:35;;;;;;;4.57;1.20;;;;;;;13.69;48.52;98036.78;10602566;27;20055;-70
2023/06/01 01:57:56;;;;;;;2.60;1.25;;;;;;;13.61;48.81;98029.97;10602639;27;20452;-70
2023/06/01 02:03:17;;;;;;;4.15;1.20;;;;;;;13.51;49.41;98026.53;10587840;27;20148;-70
2023/06/01 02:08:39;;;;;;;5.50;1.65;;;;;;;13.51;49.85;98020.94;10587590;27;20055;-70
2023/06/01 02:14:00;;;;;;;4.15;1.38;;;;;;;13.50;50.07;98011.06;10615641;27;20059;-70
2023/06/01 02:19:21;;;;;;;3.78;1.42;;;;;;;13.46;50.34;98015.09;10586964;27;20460;-70
2023/06/01 02:24:42;;;;;;;7.60;1.85;;;;;;;13.56;50.50;98014.25;10601150;27;20476;-70
2023/06/01 02:30:06;;;;;;;3.20;1.45;;;;;;;13.50;50.73;98020.19;10614858;27;20035;-70
2023/06/01 02:35:26;;;;;;;3.88;1.42;;;;;;;13.56;51.06;98011.44;10587195;27;20114;-70
2023/06/01 02:40:47;;;;;;;3.05;1.45;;;;;;;13.61;51.15;98013.16;10600513;27;20165;-70
2023/06/01 02:46:08;;;;;;;2.42;1.27;;;;;;;13.68;50.89;98014.97;10600069;27;20062;-70
2023/06/01 02:51:32;;;;;;;6.00;1.50;;;;;;;13.76;51.08;98018.25;10586611;27;20071;-70
2023/06/01 02:57:05;;;;;;;3.63;1.73;;;;;;;13.70;51.07;98009.47;10600999;27;20067;-70
2023/06/01 03:02:35;;;;;;;6.18;1.70;;;;;;;13.62;51.36;98003.41;10613603;27;20059;-70
2023/06/01 03:07:55;;;;;;;6.32;1.90;;;;;;;13.61;51.85;98011.06;10599524;27;20036;-70
2023/06/01 03:13:19;;;;;;;6.35;1.55;;;;;;;13.63;51.94;98004.84;10599548;27;20443;-70
2023/06/01 03:18:40;;;;;;;5.38;1.67;;;;;;;13.67;51.85;98003.00;10598990;27;20078;-70
2023/06/01 03:24:01;;;;;;;4.05;1.70;;;;;;;13.84;51.87;98004.69;10598812;27;20071;-70
2023/06/01 03:29:22;;;;;;;4.18;1.63;;;;;;;13.98;51.96;98002.72;10598634;27;20059;-70
2023/06/01 03:34:42;;;;;;;5.55;1.95;;;;;;;14.13;51.59;98003.56;10612623;27;20119;-70
2023/06/01 03:40:10;;;;;;;3.72;1.48;;;;;;;14.21;51.68;98004.75;10598439;27;20468;-70
2023/06/01 03:45:31;;;;;;;4.30;1.58;;;;;;;14.27;52.02;98001.53;10599135;27;20073;-70
2023/06/01 03:50:52;;;;;;;6.35;1.92;;;;;;;14.29;51.88;98001.69;10597533;27;20066;-71
2023/06/01 03:56:12;;;;;;;10.35;2.08;;;;;;;14.31;52.02;97991.28;10597434;27;20130;-70
2023/06/01 04:01:36;;;;;;;3.10;1.65;;;;;;;14.32;52.04;97992.75;10597772;27;20076;-70
2023/06/01 04:07:02;;;;;;;6.13;1.70;;;;;;;14.44;52.07;97997.59;10583895;27;20071;-70
2023/06/01 04:12:23;;;;;;;8.18;1.67;;;;;;;14.55;52.47;97999.63;10597174;27;20417;-71
2023/06/01 04:17:44;;;;;;;4.63;1.60;;;;;;;14.66;51.64;97986.88;10582859;27;20072;-70
2023/06/01 04:23:06;;;;;;;4.90;1.75;;;;;;;14.80;51.78;97993.31;10582696;27;20035;-70
2023/06/01 04:28:27;;;;;;;6.53;2.28;;;;;;;14.95;51.88;97986.34;10610124;27;20035;-70
2023/06/01 04:33:52;;;;;;;7.22;2.00;;;;;;;15.18;51.79;97992.56;10625485;27;20118;-70
2023/06/01 04:39:17;;;;;;;8.75;1.90;;;;;;;15.50;51.37;98003.34;10583396;27;20499;-70
2023/06/01 04:44:41;;;;;;;5.60;1.80;;;;;;;15.65;50.88;97994.31;10595718;27;20050;-70
2023/06/01 04:50:08;;;;;;;4.93;2.30;;;;;;;15.88;50.88;97994.09;10596823;27;20122;-70
2023/06/01 04:55:30;;;;;;;4.50;2.08;;;;;;;16.24;50.42;97992.38;10581743;27;20404;-70
2023/06/01 05:00:53;;;;;;;;;;;;;;;16.66;49.94;97995.78;10596014;27;20043;-70
2023/06/01 05:06:15;;;;;;;11.50;2.55;;;;;;;17.08;49.71;97993.53;10580713;27;19920;-70
2023/06/01 05:11:37;;;;;;;8.38;2.20;;;;;;;17.65;49.00;97996.06;10594788;27;20040;-70
2023/06/01 05:16:58;;;;;;;12.15;2.28;;;;;;;17.93;48.12;97991.69;10623534;27;20133;-70
2023/06/01 05:22:19;;;;;;;8.90;2.60;;;;;;;18.19;47.57;97980.78;10580370;28;20114;-70
2023/06/01 05:27:40;;;;;;;11.98;2.60;;;;;;;18.53;47.36;97984.28;10623970;28;20043;-70
2023/06/01 05:33:03;;;;;;;7.55;2.30;;;;;;;18.99;46.15;97983.94;10593976;28;20035;-70
2023/06/01 05:38:25;;;;;;;7.15;2.17;;;;;;;19.33;45.03;97976.03;10607842;28;20466;-70
2023/06/01 05:43:46;;;;;;;6.00;2.33;;;;;;;20.16;44.86;97970.47;10579348;28;20043;-70
2023/06/01 05:49:07;;;;;;;7.63;2.67;;;;;;;20.94;43.48;97972.94;10607789;28;20043;-70
2023/06/01 05:54:29;;;;;;;7.25;2.17;;;;;;;21.62;42.29;97970.72;10579221;28;20039;-70
2023/06/01 05:59:52;;;;;;;5.18;2.10;;;;;;;22.04;41.60;97967.56;10592663;28;20043;-70
2023/06/01 06:05:13;;;;;;;;;;;;;;;22.19;40.11;97970.09;10594260;28;20062;-70
2023/06/01 06:10:35;;;;;;;12.68;2.53;;;;;;;22.89;39.22;97966.84;10622520;28;19934;-70
2023/06/01 06:15:56;;;;;;;9.80;2.13;;;;;;;23.69;38.20;97972.81;10607236;28;20050;-71
2023/06/01 06:21:18;;;;;;;9.43;1.77;;;;;;;24.18;36.34;97981.53;10607484;28;20039;-70
2023/06/01 06:26:39;;;;;;;5.65;1.77;;;;;;;24.71;34.64;97977.47;10623399;27;20039;-71
2023/06/01 06:32:00;;;;;;;9.63;1.40;;;;;;;24.99;33.25;97974.28;10601255;27;20035;-70
2023/06/01 06:37:21;;;;;;;10.00;2.10;;;;;;;25.37;32.14;97976.25;10600648;27;20039;-70
2023/06/01 06:42:42;;;;;;;7.65;2.10;;;;;;;25.34;32.65;97975.50;10600638;27;20488;-71
2023/06/01 06:48:03;;;;;;;5.88;2.10;;;;;;;25.31;32.15;97979.03;10600202;27;20133;-70
2023/06/01 06:53:24;;;;;;;7.65;1.90;;;;;;;25.21;32.27;97979.63;10600081;27;20047;-71
2023/06/01 06:58:45;;;;;;;5.97;1.30;;;;;;;26.16;31.53;97977.16;10585520;27;20054;-71
2023/06/01 07:04:20;;;;;;;5.63;1.60;;;;;;;26.46;29.70;97971.00;10601068;27;20054;-71
2023/06/01 07:09:41;;;;;;;6.10;1.87;;;;;;;27.59;29.34;97967.38;10613788;27;20059;-70
2023/06/01 07:15:02;;;;;;;5.88;1.50;;;;;;;29.05;27.55;97974.75;10584280;27;20042;-71
2023/06/01 07:20:24;;;;;;;6.60;1.70;;;;;;;29.51;25.91;97979.66;10598791;27;20047;-71
2023/06/01 07:25:45;;;;;;;5.50;1.50;;;;;;;29.82;25.64;97977.38;10598950;27;20043;-71
2023/06/01 07:31:07;;;;;;;7.95;1.60;;;;;;;30.45;25.57;97976.25;10598499;27;20050;-71
2023/06/01 07:36:35;;;;;;;5.05;1.55;;;;;;;30.32;24.40;97969.88;10612150;27;20484;-71
2023/06/01 07:41:56;;;;;;;7.55;1.70;;;;;;;29.87;24.60;97958.63;10626028;27;20068;-71
2023/06/01 07:47:17;;;;;;;4.20;1.23;;;;;;;29.53;24.77;97964.53;10583809;27;20054;-71
2023/06/01 07:52:38;;;;;;;3.77;1.33;;;;;;;31.12;24.46;97954.78;10611100;27;20107;-71
2023/06/01 07:57:59;;;;;;;5.90;1.67;;;;;;;31.51;22.63;97955.75;10597223;27;20657;-71
2023/06/01 08:03:21;;;;;;;14.33;1.70;;;;;;;31.39;21.61;97955.94;10596620;27;20059;-72
2023/06/01 08:08:43;;;;;;;11.93;1.67;;;;;;;32.36;21.61;97959.66;10611318;27;20050;-71
2023/06/01 08:14:07;;;;;;;6.95;1.52;;;;;;;33.19;20.14;97951.00;10610979;27;20054;-72
2023/06/01 08:19:28;;;;;;;6.82;1.40;;;;;;;32.49;19.59;97951.50;10582167;27;20437;-72
2023/06/01 08:24:51;;;;;;;4.30;1.27;;;;;;;32.05;19.70;97953.63;10610444;27;20043;-71
2023/06/01 08:30:12;;;;;;;3.25;0.90;;;;;;;32.12;19.05;97951.34;10596569;27;20499;-71
2023/06/01 08:35:33;;;;;;;4.07;1.03;;;;;;;32.22;18.67;97936.03;10610284;27;20039;-72
2023/06/01 08:40:54;;;;;;;;;;;;;;;32.34;18.55;97933.72;10625847;27;20043;-72
2023/06/01 08:46:15;;;;;;;6.15;1.25;;;;;;;32.05;18.57;97936.31;10609575;27;19976;-72
2023/06/01 08:51:37;;;;;;;7.80;1.40;;;;;;;31.73;18.71;97936.72;10609032;27;20472;-72
2023/06/01 08:57:04;;;;;;;4.35;0.88;;;;;;;31.50;18.74;97936.31;10595075;27;20284;-72
2023/06/01 09:02:27;;;;;;;5.95;1.15;;;;;;;31.26;18.76;97925.78;10594834;27;20126;-72
2023/06/01 09:07:49;;;;;;;3.75;1.00;;;;;;;31.72;18.48;97926.66;10609107;27;20492;-72
2023/06/01 09:13:10;;;;;;;2.35;0.90;;;;;;;32.28;18.82;97928.00;10594608;27;20039;-72
2023/06/01 09:18:31;;;;;;;;;;;;;;;32.81;17.41;97927.09;10624334;27;20047;-72
2023/06/01 09:23:54;;;;;;;4.90;1.00;;;;;;;33.88;16.55;97914.88;10594521;27;20427;-72
2023/06/01 09:29:15;;;;;;;3.72;1.00;;;;;;;33.59;16.40;97917.66;10608856;28;20054;-72
2023/06/01 09:34:37;;;;;;;2.55;0.90;;;;;;;34.42;16.26;97920.84;10580196;28;20063;-72
2023/06/01 09:39:58;;;;;;;3.60;1.00;;;;;;;34.08;15.90;97910.78;10580362;28;20050;-71
2023/06/01 09:45:20;;;;;;;5.47;1.00;;;;;;;34.59;16.20;97903.75;10593883;28;20061;-72
2023/06/01 09:50:42;;;;;;;4.50;1.20;;;;;;;34.48;15.87;97905.50;10594323;28;20101;-72
2023/06/01 09:56:03;;;;;;;3.65;0.90;;;;;;;34.70;15.74;97896.91;10594018;28;20047;-72
2023/06/01 10:01:26;;;;;;;2.42;0.90;;;;;;;34.83;15.69;97894.38;10608661;27;20484;-72
2023/06/01 10:06:47;;;;;;;3.15;1.08;;;;;;;34.99;14.95;97891.06;10587688;27;20055;-72
2023/06/01 10:12:11;;;;;;;3.55;0.70;;;;;;;35.38;15.23;97884.19;10615788;27;20049;-72
2023/06/01 10:17:32;;;;;;;3.85;1.08;;;;;;;35.48;14.43;97878.09;10601256;27;20047;-72
2023/06/01 10:22:53;;;;;;;2.80;1.10;;;;;;;34.32;15.33;97889.91;10586859;27;20453;-72
2023/06/01 10:28:14;;;;;;;4.32;0.93;;;;;;;34.41;15.54;97885.34;10586891;27;20050;-72
2023/06/01 10:33:54;;;;;;;1.85;0.82;;;;;;;34.72;15.37;97882.34;10600923;27;20043;-72
2023/06/01 10:39:25;;;;;;;2.67;1.10;;;;;;;34.22;14.80;97869.16;10585917;27;20078;-72
2023/06/01 10:44:47;;;;;;;5.10;1.00;;;;;;;32.47;16.35;97870.66;10600491;27;20043;-72
2023/06/01 10:50:08;;;;;;;2.70;1.00;;;;;;;32.60;16.57;97865.38;10600011;27;20047;-72
2023/06/01 10:55:30;;;;;;;4.72;1.33;;;;;;;32.53;16.54;97864.78;10614069;27;20039;-72
2023/06/01 11:00:55;;;;;;;2.90;1.05;;;;;;;32.39;16.58;97867.91;10614535;27;20035;-72
2023/06/01 11:06:23;;;;;;;3.92;1.00;;;;;;;32.83;16.38;97865.66;10613533;27;20075;-72
2023/06/01 11:11:47;;;;;;;4.35;0.95;;;;;;;32.01;16.46;97861.28;10613799;27;20039;-72
2023/06/01 11:17:26;;;;;;;2.65;0.70;;;;;;;32.57;16.69;97853.16;10612951;27;20046;-72
2023/06/01 11:22:48;;;;;;;3.80;0.80;;;;;;;32.68;16.21;97845.00;10599222;27;20035;-72
2023/06/01 11:28:09;;;;;;;2.60;0.93;;;;;;;31.60;16.07;97844.59;10598462;27;20122;-72
2023/06/01 11:33:31;;;;;;;2.10;0.77;;;;;;;31.41;16.92;97831.88;10627652;27;20434;-71
2023/06/01 11:38:57;;;;;;;3.67;1.10;;;;;;;31.71;16.80;97830.72;10598321;27;20056;-71
2023/06/01 11:44:29;;;;;;;3.25;0.95;;;;;;;31.38;16.61;97813.19;10601379;27;20054;-72
2023/06/01 11:49:51;;;;;;;2.05;0.63;;;;;;;31.17;17.22;97818.47;10611642;27;20126;-72
2023/06/01 11:55:13;;;;;;;2.25;0.80;;;;;;;30.96;16.93;97815.16;10626447;27;20043;-72
2023/06/01 12:00:38;;;;;;;3.53;0.98;;;;;;;30.74;17.66;97809.66;10596940;27;20066;-72
2023/06/01 12:05:59;;;;;;;3.65;1.13;;;;;;;30.90;17.58;97800.13;10568105;28;20051;-71
2023/06/01 12:11:22;;;;;;;1.35;0.80;;;;;;;31.15;17.43;97803.38;10568605;28;20089;-71
2023/06/01 12:16:58;;;;;;;4.18;1.10;;;;;;;31.10;17.87;97791.22;10568066;28;20043;-72
2023/06/01 12:22:20;;;;;;;4.55;1.25;;;;;;;30.90;17.96;97788.59;10554078;28;20058;-72
2023/06/01 12:27:42;;;;;;;2.50;0.95;;;;;;;30.70;18.64;97786.69;10582034;28;20074;-72
2023/06/01 12:33:05;;;;;;;4.10;1.10;;;;;;;30.86;18.84;97786.47;10567479;28;20469;-72
2023/06/01 12:38:27;;;;;;;3.33;0.90;;;;;;;31.39;18.53;97774.25;10539587;28;20040;-72
2023/06/01 12:43:49;;;;;;;3.93;1.00;;;;;;;31.61;18.32;97771.00;10582758;28;20067;-72
2023/06/01 12:49:17;;;;;;;2.15;0.88;;;;;;;32.46;18.32;97763.06;10553682;28;20795;-72
2023/06/01 12:54:38;;;;;;;5.95;1.00;;;;;;;32.50;18.00;97750.72;10553670;28;20043;-72
2023/06/01 12:59:59;;;;;;;1.85;1.02;;;;;;;32.80;17.51;97748.66;10566964;28;20040;-72
2023/06/01 13:05:20;;;;;;;4.40;0.93;;;;;;;32.39;18.26;97746.59;10592457;27;20509;-72
2023/06/01 13:10:42;;;;;;;3.95;1.17;;;;;;;31.90;18.50;97736.66;10608655;27;20050;-72
2023/06/01 13:16:04;;;;;;;4.65;0.95;;;;;;;31.32;18.73;97729.66;10594422;27;20106;-71
2023/06/01 13:21:25;;;;;;;3.40;1.10;;;;;;;30.90;19.85;97725.19;10580713;27;20503;-72
2023/06/01 13:26:46;;;;;;;5.87;1.40;;;;;;;30.58;20.17;97712.59;10623654;27;20074;-72
2023/06/01 13:32:08;;;;;;;6.00;1.27;;;;;;;30.10;20.23;97711.00;10594233;28;20043;-72
2023/06/01 13:37:29;;;;;;;;;;;;;;;30.17;20.43;97703.75;10599401;27;20035;-71
2023/06/01 13:42:50;;;;;;;3.67;1.05;;;;;;;29.86;21.20;97698.28;10602496;27;19945;-72
2023/06/01 13:48:11;;;;;;;3.30;1.15;;;;;;;29.91;20.93;97698.94;10588689;27;20046;-71
2023/06/01 13:53:36;;;;;;;3.95;1.10;;;;;;;30.00;21.10;97694.53;10616884;27;20066;-72
2023/06/01 13:58:56;;;;;;;2.72;0.98;;;;;;;29.84;21.15;97681.03;10616403;27;20088;-72
2023/06/01 14:04:20;;;;;;;8.23;1.02;;;;;;;29.90;21.37;97686.72;10602038;27;20449;-73
2023/06/01 14:09:40;;;;;;;6.57;1.03;;;;;;;30.37;21.17;97668.94;10616043;27;20051;-72
2023/06/01 14:15:01;;;;;;;4.00;1.10;;;;;;;30.30;20.75;97676.22;10601395;27;20265;-72
2023/06/01 14:20:22;;;;;;;3.80;1.10;;;;;;;29.53;21.20;97672.00;10615621;27;20063;-72
2023/06/01 14:25:43;;;;;;;5.53;0.82;;;;;;;29.21;21.34;97652.09;10601203;27;20050;-72
2023/06/01 14:31:04;;;;;;;6.07;1.38;;;;;;;29.10;21.69;97637.09;10586809;27;20088;-72
2023/06/01 14:36:25;;;;;;;2.70;1.08;;;;;;;29.02;21.83;97642.91;10630284;27;20047;-72
2023/06/01 14:42:07;;;;;;;5.00;1.17;;;;;;;28.99;21.92;97630.00;10592222;27;20392;-72
2023/06/01 14:47:28;;;;;;;2.78;1.20;;;;;;;28.94;21.68;97631.47;10585263;27;20043;-72
2023/06/01 14:52:49;;;;;;;4.68;1.42;;;;;;;28.31;22.26;97623.22;10571777;27;20039;-72
2023/06/01 14:58:10;;;;;;;4.38;1.85;;;;;;;27.79;22.65;97616.91;10599704;27;20479;-72
2023/06/01 15:03:31;;;;;;;3.03;1.00;;;;;;;27.44;23.16;97619.09;10600009;27;20047;-72
2023/06/01 15:08:51;;;;;;;2.90;1.20;;;;;;;27.27;23.61;97609.81;10629403;27;20162;-71
2023/06/01 15:14:12;;;;;;;2.90;1.00;;;;;;;27.21;23.90;97609.09;10613493;27;20047;-72
2023/06/01 15:19:36;;;;;;;7.68;1.30;;;;;;;27.24;23.57;97599.06;10613336;27;20046;-72
2023/06/01 15:24:57;;;;;;;1.90;0.90;;;;;;;27.22;23.56;97596.94;10598917;27;20039;-71
2023/06/01 15:30:17;;;;;;;3.40;1.27;;;;;;;26.96;23.67;97591.88;10612953;27;20092;-72
2023/06/01 15:35:38;;;;;;;5.22;1.00;;;;;;;26.70;23.24;97591.88;10598232;27;20043;-72
2023/06/01 15:40:59;;;;;;;3.78;1.02;;;;;;;26.41;23.86;97585.38;10583900;27;20045;-72
2023/06/01 15:46:21;;;;;;;5.38;1.13;;;;;;;26.18;23.73;97581.72;10612372;27;20120;-72
2023/06/01 15:51:42;;;;;;;4.57;0.93;;;;;;;25.99;24.53;97574.50;10597687;27;20046;-72
2023/06/01 15:57:07;;;;;;;5.97;1.25;;;;;;;25.83;24.13;97575.84;10597692;27;20116;-72
2023/06/01 16:02:28;;;;;;;4.35;0.90;;;;;;;25.64;24.50;97565.72;10610001;27;20122;-72
2023/06/01 16:07:50;;;;;;;5.30;0.95;;;;;;;25.48;25.15;97569.22;10611337;27;20046;-72
2023/06/01 16:13:11;;;;;;;4.38;1.10;;;;;;;25.43;24.82;97556.31;10626234;27;20499;-72
2023/06/01 16:18:32;;;;;;;4.10;1.00;;;;;;;25.44;25.26;97552.03;10610758;27;20499;-72
2023/06/01 16:23:53;;;;;;;3.70;1.02;;;;;;;25.58;24.85;97548.56;10596227;27;20039;-72
2023/06/01 16:29:14;;;;;;;3.95;0.90;;;;;;;25.63;25.29;97544.28;10610281;27;20088;-71
2023/06/01 16:34:35;;;;;;;3.17;1.00;;;;;;;25.67;25.05;97547.16;10625387;27;20070;-71
2023/06/01 16:39:55;;;;;;;2.78;1.00;;;;;;;25.64;24.51;97540.72;10595551;27;20035;-72
2023/06/01 16:45:16;;;;;;;5.38;1.10;;;;;;;25.77;24.95;97532.97;10609715;27;20077;-71
2023/06/01 16:50:37;;;;;;;4.03;1.27;;;;;;;25.90;24.69;97537.28;10594872;27;20403;-71
2023/06/01 16:55:57;;;;;;;5.65;1.23;;;;;;;26.01;24.46;97523.03;10609631;27;20035;-72
2023/06/01 17:01:18;;;;;;;4.05;1.30;;;;;;;25.89;24.70;97530.13;10580858;27;20042;-72
2023/06/01 17:06:40;;;;;;;3.60;0.98;;;;;;;25.92;24.77;97520.13;10594877;27;20072;-71
2023/06/01 17:12:02;;;;;;;3.38;1.02;;;;;;;25.89;24.82;97510.13;10594822;27;20166;-71
2023/06/01 17:17:25;;;;;;;3.47;1.13;;;;;;;25.67;24.57;97504.28;10623947;27;20039;-72
2023/06/01 17:22:46;;;;;;;5.03;1.17;;;;;;;25.37;25.07;97497.00;10594917;27;20043;-71
2023/06/01 17:28:07;;;;;;;3.88;1.10;;;;;;;25.15;25.53;97511.16;10580014;27;20047;-72
2023/06/01 17:33:28;;;;;;;3.05;1.20;;;;;;;25.02;25.54;97496.09;10594317;28;20039;-71
2023/06/01 17:38:49;;;;;;;2.72;1.08;;;;;;;24.90;25.43;97495.25;10594089;28;20370;-71
2023/06/01 17:44:10;;;;;;;4.15;1.20;;;;;;;24.70;26.54;97505.09;10608140;28;20066;-71
2023/06/01 17:49:31;;;;;;;6.93;1.27;;;;;;;24.41;26.56;97503.41;10607895;28;20067;-71
2023/06/01 17:54:53;;;;;;;3.15;0.90;;;;;;;24.06;27.25;97514.47;10593833;28;20164;-71
2023/06/01 18:00:18;;;;;;;5.70;1.00;;;;;;;23.81;27.82;97518.44;10623161;28;20473;-71
2023/06/01 18:05:40;;;;;;;1.92;0.82;;;;;;;23.54;28.53;97520.22;10608033;28;20047;-71
2023/06/01 18:11:06;;;;;;;3.70;1.02;;;;;;;23.26;29.28;97514.88;10607727;28;20048;-71
2023/06/01 18:16:27;;;;;;;4.38;1.38;;;;;;;23.04;29.74;97524.53;10608592;28;20118;-71
2023/06/01 18:21:48;;;;;;;4.28;1.50;;;;;;;22.81;30.35;97520.59;10593254;27;20445;-71
2023/06/01 18:27:10;;;;;;;3.72;1.27;;;;;;;22.56;30.77;97532.97;10630779;27;20142;-71
2023/06/01 18:32:31;;;;;;;4.60;1.58;;;;;;;22.32;31.17;97543.94;10615193;27;20043;-71
2023/06/01 18:37:52;;;;;;;6.45;2.28;;;;;;;22.07;31.51;97539.91;10615319;27;20039;-71
2023/06/01 18:43:13;;;;;;;3.85;1.70;;;;;;;21.90;31.92;97553.78;10614971;27;20039;-71
2023/06/01 18:48:35;;;;;;;6.60;2.28;;;;;;;21.65;32.39;97554.69;10614696;27;20045;-71
2023/06/01 18:53:55;;;;;;;5.25;2.03;;;;;;;21.36;32.77;97559.03;10614620;27;20042;-71
2023/06/01 18:59:16;;;;;;;8.07;2.70;;;;;;;21.15;33.59;97572.03;10599953;27;20051;-71
2023/06/01 19:04:41;;;;;;;6.60;3.15;;;;;;;20.93;33.88;97588.50;10613966;27;20051;-71
2023/06/01 19:10:04;;;;;;;9.13;3.30;;;;;;;20.66;34.54;97579.34;10571706;27;20043;-71
2023/06/01 19:15:26;;;;;;;10.43;3.53;;;;;;;20.43;34.86;97589.38;10599560;27;20043;-71
2023/06/01 19:21:13;;;;;;;4.90;2.83;;;;;;;20.23;36.04;97594.47;10599171;27;20047;-71
2023/06/01 19:26:34;;;;;;;7.78;3.80;;;;;;;20.09;36.20;97599.78;10613080;27;20441;-68
2023/06/01 19:31:55;;;;;;;6.75;4.30;;;;;;;19.87;36.25;97597.72;10628441;27;20047;-71
2023/06/01 19:37:16;;;;;;;6.13;3.30;;;;;;;19.78;36.31;97604.53;10612107;27;20066;-71
2023/06/01 19:42:37;;;;;;;6.57;3.28;;;;;;;19.61;36.65;97602.63;10598324;27;20063;-70
2023/06/01 19:47:58;;;;;;;6.65;4.32;;;;;;;19.45;36.56;97606.38;10598267;27;20524;-71
2023/06/01 19:53:19;;;;;;;7.72;4.07;;;;;;;19.33;36.34;97619.44;10597838;27;20035;-71
2023/06/01 19:58:41;;;;;;;6.53;4.07;;;;;;;19.16;36.62;97624.59;10611838;27;20067;-71
2023/06/01 20:04:03;;;;;;;7.40;4.00;;;;;;;19.04;36.52;97627.03;10597472;27;20412;-71
2023/06/01 20:09:24;;;;;;;9.13;4.37;;;;;;;18.92;36.49;97628.75;10597195;27;20553;-71
2023/06/01 20:14:46;;;;;;;8.63;3.78;;;;;;;18.81;36.22;97631.22;10611082;27;20423;-71
2023/06/01 20:20:07;;;;;;;7.68;3.50;;;;;;;18.67;36.24;97632.84;10596664;27;20051;-71
2023/06/01 20:25:28;;;;;;;5.82;3.47;;;;;;;18.57;36.05;97636.75;10610775;27;20482;-71
2023/06/01 20:31:04;;;;;;;9.15;3.90;;;;;;;18.45;36.15;97635.63;10582312;27;20054;-71
2023/06/01 20:36:30;;;;;;;10.43;3.97;;;;;;;18.37;36.11;97641.69;10610272;27;20403;-71
2023/06/01 20:41:51;;;;;;;5.30;3.55;;;;;;;18.19;35.94;97632.56;10581927;27;20458;-71
2023/06/01 20:47:13;;;;;;;6.45;3.30;;;;;;;18.09;36.08;97635.03;10595448;27;20047;-71
2023/06/01 20:52:37;;;;;;;6.68;3.45;;;;;;;17.98;36.22;97642.41;10596478;27;20035;-69
2023/06/01 20:57:57;;;;;;;6.30;3.22;;;;;;;17.89;36.31;97630.09;10624708;27;20492;-70
2023/06/01 21:03:18;;;;;;;8.13;3.65;;;;;;;17.81;36.32;97640.34;10595105;27;20047;-70
2023/06/01 21:08:39;;;;;;;5.97;3.40;;;;;;;17.73;36.13;97640.78;10609261;27;20043;-69
2023/06/01 21:14:00;;;;;;;9.73;3.20;;;;;;;17.64;36.41;97639.00;10624615;27;20042;-70
2023/06/01 21:19:21;;;;;;;5.60;3.05;;;;;;;17.54;36.76;97644.25;10608884;27;20095;-70
2023/06/01 21:24:41;;;;;;;7.18;3.20;;;;;;;17.45;36.64;97635.47;10609100;27;20088;-70
2023/06/01 21:30:02;;;;;;;5.38;3.40;;;;;;;17.39;36.90;97652.16;10580605;27;20043;-71
2023/06/01 21:35:23;;;;;;;7.45;3.42;;;;;;;17.28;37.05;97650.31;10608603;28;20053;-70
2023/06/01 21:40:44;;;;;;;5.43;2.72;;;;;;;17.18;37.12;97658.38;10608642;28;20532;-70
2023/06/01 21:46:05;;;;;;;6.78;3.13;;;;;;;17.09;37.29;97653.78;10608317;28;20042;-70
2023/06/01 21:51:26;;;;;;;6.22;2.72;;;;;;;17.00;37.25;97654.81;10580024;28;20120;-70
2023/06/01 21:56:46;;;;;;;5.63;2.70;;;;;;;16.94;37.73;97648.91;10607961;27;20039;-70
2023/06/01 22:02:07;;;;;;;4.45;2.53;;;;;;;16.89;37.96;97648.03;10602367;27;20035;-70
2023/06/01 22:07:28;;;;;;;5.22;3.00;;;;;;;16.86;38.11;97654.94;10602308;27;20058;-70
2023/06/01 22:12:49;;;;;;;3.78;2.22;;;;;;;16.80;38.21;97655.44;10616110;27;20505;-70
2023/06/01 22:18:09;;;;;;;4.43;3.20;;;;;;;16.73;38.75;97661.44;10601586;27;20066;-72
2023/06/01 22:23:30;;;;;;;6.78;2.78;;;;;;;16.68;38.82;97654.91;10630993;27;20047;-71
2023/06/01 22:28:50;;;;;;;9.70;2.90;;;;;;;16.59;39.04;97642.53;10572942;27;20070;-71
2023/06/01 22:34:11;;;;;;;5.43;2.70;;;;;;;16.56;39.46;97660.00;10615344;27;20047;-72
2023/06/01 22:39:32;;;;;;;6.05;2.60;;;;;;;16.47;39.61;97658.19;10615219;27;20070;-72
2023/06/01 22:44:53;;;;;;;4.85;2.65;;;;;;;16.39;39.77;97664.19;10586398;27;20039;-71
2023/06/01 22:50:18;;;;;;;5.72;3.17;;;;;;;16.38;40.19;97673.28;10586271;27;20469;-72
2023/06/01 22:55:39;;;;;;;7.07;2.60;;;;;;;16.27;40.56;97672.84;10630048;27;20377;-69
2023/06/01 23:01:00;;;;;;;7.75;2.60;;;;;;;16.18;40.88;97668.22;10599956;27;20472;-71
2023/06/01 23:06:21;;;;;;;6.53;2.83;;;;;;;16.13;41.13;97672.22;10599477;27;20508;-71
2023/06/01 23:11:41;;;;;;;6.05;2.72;;;;;;;16.05;41.66;97673.97;10613072;27;20083;-71
2023/06/01 23:17:05;;;;;;;5.07;2.75;;;;;;;15.93;41.77;97676.97;10599321;27;20035;-71
2023/06/01 23:22:25;;;;;;;;;;;;;;;15.86;43.04;97678.75;10586333;27;20062;-71
2023/06/01 23:27:47;;;;;;;5.32;2.55;;;;;;;15.76;42.76;97686.00;10598859;27;20253;-71
2023/06/01 23:33:07;;;;;;;8.07;2.80;;;;;;;15.60;43.03;97674.69;10613312;27;20059;-71
2023/06/01 23:38:29;;;;;;;8.00;3.08;;;;;;;15.55;43.18;97676.59;10584174;27;20396;-71
2023/06/01 23:43:50;;;;;;;4.72;2.65;;;;;;;15.41;43.94;97675.91;10598553;27;20110;-71
2023/06/01 23:49:11;;;;;;;4.65;2.60;;;;;;;15.32;44.26;97671.25;10598030;27;20066;-71
2023/06/01 23:54:32;;;;;;;5.68;2.67;;;;;;;15.28;44.46;97682.31;10598099;27;20096;-71
2023/06/01 23:59:52;;;;;;;8.50;2.75;;;;;;;15.18;44.92;97683.28;10598187;27;20046;-72
